Time;durP1;ratioP1;P1;durP2;ratioP2;P2;SDS_P1;SDS_P2;PMS_P1;PMS_P2;Temp;Humidity;BMP_temperature;BMP_pressure;BME280_temperature;BME280_humidity;BME280_pressure;Samples;Min_cycle;Max_cycle;Signal;HPM_P1;HPM_P2
2022/12/21 00:00:07;;;;;;;14.95;12.40;;;;;;;8.42;100.00;100453.91;4945855;29;20130;-80
2022/12/21 00:02:34;;;;;;;15.27;12.27;;;;;;;8.39;100.00;100448.97;4926650;29;20116;-80
2022/12/21 00:05:01;;;;;;;14.55;12.52;;;;;;;8.40;100.00;100459.28;4926588;29;20135;-80
2022/12/21 00:07:27;;;;;;;14.65;12.43;;;;;;;8.39;100.00;100456.81;4926419;29;20413;-79
2022/12/21 00:09:54;;;;;;;13.68;12.10;;;;;;;8.40;100.00;100461.88;4937706;29;20092;-79
2022/12/21 00:12:20;;;;;;;14.75;11.95;;;;;;;8.42;100.00;100454.72;4944040;29;20079;-79
2022/12/21 00:14:47;;;;;;;16.10;11.85;;;;;;;8.40;100.00;100450.63;4944702;29;20105;-80
2022/12/21 00:17:15;;;;;;;14.85;12.27;;;;;;;8.37;100.00;100433.50;4946090;29;20056;-78
2022/12/21 00:19:43;;;;;;;15.88;11.80;;;;;;;8.46;100.00;100457.88;4944910;29;20096;-80
2022/12/21 00:22:10;;;;;;;17.02;12.38;;;;;;;8.43;100.00;100450.34;4945238;29;20051;-78
2022/12/21 00:24:37;;;;;;;15.70;12.13;;;;;;;8.50;100.00;100449.59;4945357;29;20090;-79
2022/12/21 00:27:04;;;;;;;17.15;13.23;;;;;;;8.42;100.00;100440.88;4945055;29;20091;-80
2022/12/21 00:29:30;;;;;;;16.33;13.23;;;;;;;8.43;100.00;100435.50;4944154;29;20067;-79
2022/12/21 00:31:57;;;;;;;20.65;14.00;;;;;;;8.50;100.00;100443.56;4943469;29;20055;-79
2022/12/21 00:34:25;;;;;;;18.27;14.27;;;;;;;8.48;100.00;100442.91;4944383;29;20102;-80
2022/12/21 00:36:52;;;;;;;20.90;12.02;;;;;;;8.49;100.00;100439.31;4945070;29;20078;-79
2022/12/21 00:39:19;;;;;;;18.70;12.25;;;;;;;8.49;100.00;100427.09;4943424;29;20055;-79
2022/12/21 00:41:46;;;;;;;16.13;10.90;;;;;;;8.52;100.00;100431.16;4947949;29;20082;-79
2022/12/21 00:44:12;;;;;;;14.77;11.27;;;;;;;8.57;100.00;100426.34;4946703;29;20082;-80
2022/12/21 00:46:39;;;;;;;17.80;9.93;;;;;;;8.66;100.00;100441.09;4945131;29;20051;-79
2022/12/21 00:49:06;;;;;;;12.98;10.35;;;;;;;8.65;100.00;100434.25;4945416;29;20080;-80
2022/12/21 00:51:36;;;;;;;12.65;9.50;;;;;;;8.62;100.00;100429.31;4944348;29;20331;-80
2022/12/21 00:54:02;;;;;;;13.68;10.48;;;;;;;8.63;100.00;100428.34;4944571;29;20154;-79
2022/12/21 00:56:29;;;;;;;13.43;9.27;;;;;;;8.57;100.00;100432.38;4943960;29;20139;-79
2022/12/21 00:58:56;;;;;;;13.88;9.32;;;;;;;8.60;100.00;100439.09;4943571;29;20131;-80
2022/12/21 01:01:25;;;;;;;15.30;9.45;;;;;;;8.63;100.00;100447.44;4944022;29;20051;-80
2022/12/21 01:03:52;;;;;;;12.00;9.45;;;;;;;8.61;100.00;100451.16;4944418;29;20075;-80
2022/12/21 01:06:22;;;;;;;14.52;10.38;;;;;;;8.54;100.00;100442.28;4945058;29;20062;-80
2022/12/21 01:08:50;;;;;;;11.98;9.32;;;;;;;8.54;100.00;100447.50;4944619;29;20051;-80
2022/12/21 01:11:18;;;;;;;13.45;9.43;;;;;;;8.53;100.00;100454.50;4944043;29;20135;-79
2022/12/21 01:13:46;;;;;;;12.20;9.38;;;;;;;8.48;100.00;100453.31;4944178;29;20055;-79
2022/12/21 01:16:15;;;;;;;11.02;9.10;;;;;;;8.47;100.00;100459.50;4944153;29;20127;-81
2022/12/21 01:18:42;;;;;;;13.80;9.43;;;;;;;8.50;100.00;100454.00;4943079;29;20056;-79
2022/12/21 01:21:15;;;;;;;15.13;9.35;;;;;;;8.49;100.00;100461.00;4943109;29;20074;-80
2022/12/21 01:23:41;;;;;;;;;;;;;;;8.51;100.00;100455.63;4950369;29;20047;-80
2022/12/21 01:26:12;;;;;;;12.85;10.07;;;;;;;8.52;100.00;100462.47;4962179;29;19934;-80
2022/12/21 01:28:39;;;;;;;13.50;9.55;;;;;;;8.51;100.00;100466.03;4961707;29;20354;-80
2022/12/21 01:31:06;;;;;;;13.65;9.95;;;;;;;8.52;100.00;100465.06;4953853;29;20051;-80
2022/12/21 01:33:33;;;;;;;13.00;10.38;;;;;;;8.54;100.00;100478.78;4945411;29;20087;-79
2022/12/21 01:36:04;;;;;;;12.77;10.18;;;;;;;8.52;100.00;100467.69;4945158;29;20126;-79
2022/12/21 01:38:31;;;;;;;15.00;10.63;;;;;;;8.59;100.00;100463.53;4944356;29;20062;-79
2022/12/21 01:40:57;;;;;;;17.73;11.15;;;;;;;8.60;100.00;100473.00;4942935;29;20083;-81
2022/12/21 01:43:42;;;;;;;14.50;10.73;;;;;;;8.63;100.00;100475.31;4943182;29;20143;-81
2022/12/21 01:46:12;;;;;;;14.10;10.45;;;;;;;8.61;100.00;100477.25;4943012;29;20101;-81
2022/12/21 01:48:44;;;;;;;15.00;10.98;;;;;;;8.61;100.00;100485.88;4942673;29;20052;-79
2022/12/21 01:51:12;;;;;;;14.52;11.38;;;;;;;8.63;100.00;100504.81;4942215;29;20111;-79
2022/12/21 01:53:44;;;;;;;16.50;11.60;;;;;;;8.57;100.00;100492.34;4942147;29;20079;-80
2022/12/21 01:56:15;;;;;;;15.17;11.73;;;;;;;8.60;100.00;100494.69;4944857;29;20048;-80
2022/12/21 01:58:43;;;;;;;18.55;12.65;;;;;;;8.63;100.00;100489.16;4942499;29;20323;-81
2022/12/21 02:01:10;;;;;;;19.80;12.45;;;;;;;8.73;100.00;100483.91;4943564;29;20562;-81
2022/12/21 02:03:41;;;;;;;16.95;12.32;;;;;;;8.70;100.00;100483.38;4943270;29;20051;-80
2022/12/21 02:06:12;;;;;;;17.60;13.27;;;;;;;8.71;100.00;100480.63;4946932;29;20047;-78
2022/12/21 02:08:42;;;;;;;18.95;13.70;;;;;;;8.68;100.00;100475.69;4945969;29;20058;-80
2022/12/21 02:11:10;;;;;;;18.75;12.98;;;;;;;8.61;100.00;100485.06;4944450;29;20488;-79
2022/12/21 02:13:37;;;;;;;27.50;14.15;;;;;;;8.62;100.00;100486.72;4947591;29;20047;-79
2022/12/21 02:16:23;;;;;;;19.77;13.27;;;;;;;8.63;100.00;100483.13;4946290;29;20052;-80
2022/12/21 02:19:13;;;;;;;23.40;13.95;;;;;;;8.59;100.00;100487.00;4942047;29;20514;-79
2022/12/21 02:21:44;;;;;;;22.90;13.88;;;;;;;8.64;100.00;100483.00;4919849;29;20106;-79
2022/12/21 02:24:42;;;;;;;23.00;15.13;;;;;;;8.59;100.00;100492.22;4941709;29;20566;-80
2022/12/21 02:27:17;;;;;;;19.33;14.10;;;;;;;8.57;100.00;100502.78;4941312;29;20103;-78
2022/12/21 02:30:07;;;;;;;22.85;13.60;;;;;;;8.62;100.00;100484.91;4940250;29;20135;-79
2022/12/21 02:35:24;;;;;;;26.55;14.85;;;;;;;8.58;100.00;100490.56;4958184;28;20490;-78
2022/12/21 02:38:02;;;;;;;23.63;15.05;;;;;;;8.57;100.00;100487.16;4952669;29;20515;-78
2022/12/21 02:40:40;;;;;;;19.08;13.25;;;;;;;8.54;100.00;100490.03;4957895;29;20511;-79
2022/12/21 02:46:08;;;;;;;18.75;13.32;;;;;;;8.47;100.00;100498.63;4933823;29;20058;-79
2022/12/21 02:48:41;;;;;;;20.48;13.90;;;;;;;8.47;100.00;100503.84;4936620;29;20138;-79
2022/12/21 02:51:17;;;;;;;23.13;14.35;;;;;;;8.46;100.00;100499.59;4935402;29;20056;-78
2022/12/21 02:53:46;;;;;;;22.58;14.35;;;;;;;8.45;100.00;100495.34;4923894;29;20134;-79
2022/12/21 02:56:15;;;;;;;21.88;14.43;;;;;;;8.42;100.00;100500.84;4936522;29;20138;-79
2022/12/21 02:58:42;;;;;;;19.65;14.73;;;;;;;8.43;100.00;100492.06;4927824;29;20059;-78
2022/12/21 03:01:20;;;;;;;22.00;14.75;;;;;;;8.44;100.00;100483.25;4924872;29;20423;-78
2022/12/21 03:04:10;;;;;;;24.83;15.15;;;;;;;8.41;100.00;100476.56;4921959;29;20043;-78
2022/12/21 03:07:06;;;;;;;28.73;14.93;;;;;;;8.42;100.00;100482.59;4922455;29;20126;-78
2022/12/21 03:09:48;;;;;;;24.48;15.38;;;;;;;8.48;100.00;100475.00;4933054;29;20098;-77
2022/12/21 03:12:26;;;;;;;23.38;15.27;;;;;;;8.48;100.00;100474.19;4940095;29;20086;-79
2022/12/21 03:15:06;;;;;;;20.80;13.80;;;;;;;8.46;100.00;100476.13;4941025;29;20130;-79
2022/12/21 03:17:44;;;;;;;24.85;14.52;;;;;;;8.46;100.00;100476.13;4921344;29;20079;-80
2022/12/21 03:20:20;;;;;;;19.73;13.68;;;;;;;8.42;100.00;100465.16;4920257;29;20452;-79
2022/12/21 03:22:53;;;;;;;33.13;13.35;;;;;;;8.35;100.00;100458.88;4929523;29;20066;-79
2022/12/21 03:25:24;;;;;;;26.92;15.00;;;;;;;8.29;100.00;100452.44;4935507;29;20191;-78
2022/12/21 03:27:55;;;;;;;21.30;14.02;;;;;;;8.38;100.00;100436.91;4918161;29;20112;-78
2022/12/21 03:30:22;;;;;;;24.73;15.77;;;;;;;8.41;100.00;100441.84;4918412;29;20149;-78
2022/12/21 03:32:57;;;;;;;22.02;15.20;;;;;;;8.39;100.00;100459.41;4917126;29;20518;-79
2022/12/21 03:35:27;;;;;;;21.13;14.98;;;;;;;8.37;100.00;100453.53;4934925;28;20154;-78
2022/12/21 03:38:01;;;;;;;50.88;17.60;;;;;;;8.39;100.00;100448.97;4969324;28;20450;-79
2022/12/21 03:40:33;;;;;;;57.85;18.80;;;;;;;8.38;100.00;100453.38;4945899;28;20085;-78
2022/12/21 03:43:04;;;;;;;69.13;19.27;;;;;;;8.39;100.00;100454.19;4951548;29;20405;-78
2022/12/21 03:45:36;;;;;;;72.38;19.73;;;;;;;8.35;100.00;100464.09;4873608;29;1142194;-78
2022/12/21 03:48:09;;;;;;;70.57;20.85;;;;;;;8.37;100.00;100461.34;4859722;29;20054;-78
2022/12/21 03:50:40;;;;;;;128.52;22.08;;;;;;;8.32;100.00;100454.78;4866746;29;20061;-78
2022/12/21 03:53:14;;;;;;;74.13;19.73;;;;;;;8.32;100.00;100454.78;4888216;29;20135;-77
2022/12/21 03:55:44;;;;;;;207.73;23.45;;;;;;;8.32;100.00;100454.78;4897290;29;20139;-77
2022/12/21 03:58:11;;;;;;;246.25;24.45;;;;;;;8.30;100.00;100446.25;4897408;29;20059;-78
2022/12/21 04:00:45;;;;;;;225.52;22.80;;;;;;;8.27;100.00;100443.94;4897152;29;20144;-78
2022/12/21 04:03:18;;;;;;;117.47;18.10;;;;;;;8.24;100.00;100444.22;4897297;29;20060;-77
2022/12/21 04:05:50;;;;;;;310.48;24.67;;;;;;;8.22;100.00;100447.94;4897487;29;20143;-78
2022/12/21 04:08:18;;;;;;;323.80;25.27;;;;;;;8.22;100.00;100433.13;4878614;29;20488;-78
2022/12/21 04:10:47;;;;;;;209.05;21.45;;;;;;;8.24;100.00;100435.56;4878862;29;20204;-78
2022/12/21 04:13:13;;;;;;;87.93;18.10;;;;;;;8.25;100.00;100435.44;4878479;29;20056;-78
2022/12/21 04:21:05;;;;;;;83.88;16.83;;;;;;;8.27;100.00;100423.06;4896258;29;20675;-77
2022/12/21 04:29:04;;;;;;;54.05;16.70;;;;;;;8.21;100.00;100438.47;4873979;29;20072;-78
2022/12/21 04:31:30;;;;;;;39.80;14.75;;;;;;;8.20;100.00;100429.84;4898308;29;20367;-78
2022/12/21 04:33:57;;;;;;;36.60;13.90;;;;;;;8.21;100.00;100436.69;4898293;29;20416;-78
2022/12/21 04:39:09;;;;;;;19.67;11.73;;;;;;;8.19;100.00;100433.41;4899793;29;20404;-79
2022/12/21 04:41:35;;;;;;;22.08;12.95;;;;;;;8.14;100.00;100425.19;4900264;29;20475;-79
2022/12/21 04:44:02;;;;;;;20.77;12.10;;;;;;;8.15;100.00;100426.03;4900141;29;20080;-79
2022/12/21 04:46:29;;;;;;;35.85;11.73;;;;;;;8.14;100.00;100425.19;4892871;29;20088;-78
2022/12/21 04:48:55;;;;;;;31.13;12.40;;;;;;;8.16;100.00;100432.88;4882959;29;20173;-79
2022/12/21 04:51:24;;;;;;;24.33;12.82;;;;;;;8.18;100.00;100428.34;4862862;29;20501;-79
2022/12/21 04:53:52;;;;;;;21.88;12.38;;;;;;;8.19;100.00;100422.16;4856952;29;20060;-79
2022/12/21 04:56:20;;;;;;;21.80;11.98;;;;;;;8.18;100.00;100429.16;4844523;29;20078;-78
2022/12/21 04:58:47;;;;;;;50.47;14.38;;;;;;;8.14;100.00;100433.03;4841371;29;20136;-78
2022/12/21 05:01:15;;;;;;;24.88;13.27;;;;;;;8.17;100.00;100422.31;4850832;29;20117;-78
2022/12/21 05:03:43;;;;;;;31.10;12.90;;;;;;;8.24;100.00;100425.16;4864217;29;20136;-77
2022/12/21 05:06:11;;;;;;;33.03;13.45;;;;;;;8.25;100.00;100422.41;4851423;29;20208;-78
2022/12/21 05:08:38;;;;;;;20.17;12.90;;;;;;;8.25;100.00;100422.41;4856026;29;20140;-78
2022/12/21 05:11:10;;;;;;;41.00;13.35;;;;;;;8.25;100.00;100416.38;4862097;29;20136;-80
2022/12/21 05:13:38;;;;;;;33.75;14.88;;;;;;;8.32;100.00;100418.28;4863690;29;20049;-80
2022/12/21 05:16:06;;;;;;;29.63;13.88;;;;;;;8.41;100.00;100421.81;4858502;29;20226;-79
2022/12/21 05:18:33;;;;;;;29.45;14.60;;;;;;;8.38;100.00;100421.28;4859285;29;20693;-78
2022/12/21 05:21:00;;;;;;;36.67;14.10;;;;;;;8.35;100.00;100408.53;4859109;29;20543;-79
2022/12/21 05:23:27;;;;;;;23.38;14.13;;;;;;;8.31;100.00;100415.78;4848831;29;20392;-78
2022/12/21 05:25:53;;;;;;;23.58;14.15;;;;;;;8.30;100.00;100414.97;4841857;29;20148;-79
2022/12/21 05:28:20;;;;;;;19.15;12.98;;;;;;;8.31;100.00;100426.22;4841830;29;20053;-78
2022/12/21 05:30:49;;;;;;;20.25;13.77;;;;;;;8.32;100.00;100423.50;4850599;29;20204;-79
2022/12/21 05:33:16;;;;;;;29.95;14.60;;;;;;;8.34;100.00;100417.31;4841531;29;20072;-79
2022/12/21 05:35:43;;;;;;;25.98;13.75;;;;;;;8.42;100.00;100412.19;4840740;29;20101;-78
2022/12/21 05:38:09;;;;;;;123.72;17.83;;;;;;;8.35;100.00;100417.16;4843951;29;20122;-78
2022/12/21 05:40:36;;;;;;;27.15;12.60;;;;;;;8.33;100.00;100416.50;4845247;29;20085;-78
2022/12/21 05:43:04;;;;;;;26.50;13.27;;;;;;;8.34;100.00;100419.91;4840309;29;20398;-78
2022/12/21 05:45:30;;;;;;;19.10;12.73;;;;;;;8.30;100.00;100424.56;4851392;29;20461;-78
2022/12/21 05:47:58;;;;;;;33.17;13.93;;;;;;;8.31;100.00;100410.56;4915746;29;20137;-78
2022/12/21 05:50:25;;;;;;;18.50;13.63;;;;;;;8.33;100.00;100408.66;4922563;29;20059;-78
2022/12/21 05:52:52;;;;;;;29.73;15.05;;;;;;;8.35;100.00;100405.91;4912832;29;20056;-78
2022/12/21 05:55:18;;;;;;;25.98;14.35;;;;;;;8.39;100.00;100402.06;4911652;29;20118;-78
2022/12/21 05:57:45;;;;;;;21.88;14.07;;;;;;;8.39;100.00;100391.63;4896361;29;20059;-80
2022/12/21 06:00:13;;;;;;;19.42;12.95;;;;;;;8.39;100.00;100396.84;4900558;29;20543;-78
2022/12/21 06:02:40;;;;;;;23.67;13.63;;;;;;;8.37;100.00;100396.16;4917075;29;20087;-78
2022/12/21 06:05:08;;;;;;;20.48;13.48;;;;;;;8.39;100.00;100392.44;4920022;29;20103;-79
2022/12/21 06:07:36;;;;;;;17.63;12.65;;;;;;;8.38;100.00;100396.03;4920962;29;20116;-79
2022/12/21 06:10:03;;;;;;;20.17;13.27;;;;;;;8.41;100.00;100395.72;4922868;29;20076;-77
2022/12/21 06:12:30;;;;;;;20.35;13.38;;;;;;;8.40;100.00;100377.63;4921371;29;20139;-79
2022/12/21 06:14:57;;;;;;;20.73;12.45;;;;;;;8.49;100.00;100392.38;4923429;29;20136;-79
2022/12/21 06:17:24;;;;;;;19.42;13.43;;;;;;;8.46;100.00;100392.69;4903648;29;20090;-78
2022/12/21 06:19:50;;;;;;;20.52;14.20;;;;;;;8.49;100.00;100400.22;4902677;29;20108;-80
2022/12/21 06:22:19;;;;;;;31.65;21.55;;;;;;;8.46;100.00;100398.72;4907114;29;20060;-79
2022/12/21 06:24:46;;;;;;;23.50;15.70;;;;;;;8.43;100.00;100403.41;4917893;29;20126;-79
2022/12/21 06:27:12;;;;;;;18.67;12.55;;;;;;;8.38;100.00;100393.41;4919165;29;20048;-79
2022/12/21 06:29:39;;;;;;;19.40;12.85;;;;;;;8.45;100.00;100401.47;4919452;29;20147;-79
2022/12/21 06:32:10;;;;;;;20.15;12.85;;;;;;;8.39;100.00;100395.06;4899507;28;20055;-78
2022/12/21 06:34:38;;;;;;;18.77;12.40;;;;;;;8.35;100.00;100385.06;4901601;29;20049;-79
2022/12/21 06:37:07;;;;;;;39.97;25.45;;;;;;;8.28;100.00;100385.63;4901356;29;20428;-79
2022/12/21 06:39:42;;;;;;;40.05;25.25;;;;;;;8.28;100.00;100396.03;4921124;29;20064;-80
2022/12/21 06:42:16;;;;;;;17.77;12.95;;;;;;;8.26;100.00;100389.34;4915472;29;20083;-79
2022/12/21 06:44:46;;;;;;;30.25;13.70;;;;;;;8.28;100.00;100375.19;4915441;29;20166;-79
2022/12/21 06:47:14;;;;;;;25.38;13.07;;;;;;;8.31;100.00;100403.56;4903551;29;20052;-79
2022/12/21 06:49:41;;;;;;;22.65;13.43;;;;;;;8.28;100.00;100405.66;4919362;29;20111;-79
2022/12/21 06:52:08;;;;;;;18.05;12.00;;;;;;;8.20;100.00;100403.78;4926583;29;20252;-79
2022/12/21 06:54:36;;;;;;;20.00;14.27;;;;;;;8.25;100.00;100411.97;4929509;29;20047;-80
2022/12/21 06:57:02;;;;;;;19.27;12.75;;;;;;;8.23;100.00;100402.66;4941998;29;20056;-79
2022/12/21 06:59:30;;;;;;;17.20;12.48;;;;;;;8.24;100.00;100399.91;4936931;29;20146;-80
2022/12/21 07:01:56;;;;;;;17.40;12.30;;;;;;;8.25;100.00;100409.38;4936809;29;20058;-79
2022/12/21 07:04:23;;;;;;;19.33;12.95;;;;;;;8.24;100.00;100410.34;4933623;29;20112;-78
2022/12/21 07:06:49;;;;;;;20.08;12.60;;;;;;;8.35;100.00;100411.94;4925412;29;20135;-78
2022/12/21 07:09:16;;;;;;;29.05;20.05;;;;;;;8.33;100.00;100406.06;4920935;29;20127;-79
2022/12/21 07:11:46;;;;;;;29.83;20.52;;;;;;;8.32;100.00;100412.22;4928767;29;20107;-78
2022/12/21 07:14:13;;;;;;;23.52;16.05;;;;;;;8.39;100.00;100415.09;4924684;29;20432;-78
2022/12/21 07:16:40;;;;;;;21.83;14.82;;;;;;;8.39;100.00;100417.69;4923993;29;20052;-80
2022/12/21 07:19:09;;;;;;;27.73;17.92;;;;;;;8.41;100.00;100420.97;4929673;29;20083;-80
2022/12/21 07:21:36;;;;;;;30.60;22.83;;;;;;;8.40;100.00;100427.97;4929714;29;20052;-79
2022/12/21 07:24:02;;;;;;;28.75;18.65;;;;;;;8.38;100.00;100416.88;4927780;29;20135;-79
2022/12/21 07:26:29;;;;;;;23.52;17.75;;;;;;;8.49;100.00;100426.28;4928520;29;20502;-79
2022/12/21 07:28:57;;;;;;;24.65;17.77;;;;;;;8.47;100.00;100423.00;4935540;29;20120;-79
2022/12/21 07:31:25;;;;;;;26.80;15.43;;;;;;;8.48;100.00;100432.47;4937574;29;20134;-79
2022/12/21 07:33:53;;;;;;;18.85;12.73;;;;;;;8.54;100.00;100424.03;4938658;29;20062;-78
2022/12/21 07:36:19;;;;;;;27.38;13.77;;;;;;;8.54;100.00;100426.63;4934979;29;20123;-79
2022/12/21 07:38:47;;;;;;;20.38;13.32;;;;;;;8.49;100.00;100432.31;4936204;29;20056;-79
2022/12/21 07:41:16;;;;;;;20.15;13.02;;;;;;;8.47;100.00;100426.44;4934220;29;20131;-79
2022/12/21 07:43:43;;;;;;;23.75;15.30;;;;;;;8.55;100.00;100429.09;4937991;29;20083;-79
2022/12/21 07:46:11;;;;;;;19.58;12.30;;;;;;;8.61;100.00;100432.91;4936898;29;20059;-80
2022/12/21 07:48:38;;;;;;;31.10;19.90;;;;;;;8.45;100.00;100422.31;4925811;29;20118;-77
2022/12/21 07:51:05;;;;;;;23.55;16.33;;;;;;;8.46;100.00;100434.41;4935850;29;20048;-79
2022/12/21 07:53:33;;;;;;;24.90;12.82;;;;;;;8.51;100.00;100447.78;4935827;29;20056;-78
2022/12/21 07:56:00;;;;;;;22.92;12.90;;;;;;;8.49;100.00;100445.34;4917366;29;20507;-78
2022/12/21 07:58:27;;;;;;;20.35;12.50;;;;;;;8.51;100.00;100450.41;4916551;29;20044;-78
2022/12/21 08:00:54;;;;;;;31.98;13.57;;;;;;;8.44;100.00;100458.00;4921899;29;20151;-78
2022/12/21 08:03:22;;;;;;;19.38;13.25;;;;;;;8.46;100.00;100465.69;4927495;29;20130;-77
2022/12/21 08:05:49;;;;;;;20.70;13.35;;;;;;;8.45;100.00;100469.25;4916592;29;20044;-77
2022/12/21 08:08:15;;;;;;;23.73;12.57;;;;;;;8.52;100.00;100465.06;4916106;29;20058;-77
2022/12/21 08:10:45;;;;;;;20.35;12.27;;;;;;;8.52;100.00;100463.28;4926425;29;20055;-78
2022/12/21 08:13:12;;;;;;;18.42;11.98;;;;;;;8.63;100.00;100472.69;4927064;29;20127;-78
2022/12/21 08:15:39;;;;;;;29.63;18.50;;;;;;;8.60;100.00;100475.59;4924045;29;20046;-77
2022/12/21 08:18:06;;;;;;;30.30;17.27;;;;;;;8.60;100.00;100471.19;4926762;29;20446;-77
2022/12/21 08:20:34;;;;;;;18.02;12.02;;;;;;;8.57;100.00;100468.06;4924123;29;20065;-78
2022/12/21 08:23:01;;;;;;;18.08;11.77;;;;;;;8.62;100.00;100460.63;4925837;29;20511;-78
2022/12/21 08:25:27;;;;;;;17.05;11.50;;;;;;;8.55;100.00;100468.22;4925023;29;20139;-78
2022/12/21 08:27:54;;;;;;;15.80;12.43;;;;;;;8.61;100.00;100469.41;4926138;29;20161;-78
2022/12/21 08:30:21;;;;;;;19.52;12.45;;;;;;;8.65;100.00;100468.16;4925421;29;20047;-78
2022/12/21 08:35:29;;;;;;;17.77;11.38;;;;;;;8.73;100.00;100472.63;4942034;29;20506;-86
2022/12/21 08:37:57;;;;;;;16.05;10.98;;;;;;;8.71;100.00;100472.78;4941225;29;20130;-85
2022/12/21 08:40:24;;;;;;;16.48;11.07;;;;;;;8.78;100.00;100473.84;4928964;29;20056;-85
2022/12/21 08:42:51;;;;;;;14.00;11.20;;;;;;;8.81;100.00;100480.56;4927889;29;20088;-84
2022/12/21 08:45:17;;;;;;;16.23;11.00;;;;;;;8.87;100.00;100472.13;4927479;29;20052;-85
2022/12/21 08:47:44;;;;;;;18.52;12.23;;;;;;;8.99;100.00;100490.00;4924580;29;20079;-85
2022/12/21 08:50:11;;;;;;;17.17;12.57;;;;;;;8.98;100.00;100487.53;4942095;29;20048;-85
2022/12/21 08:52:37;;;;;;;16.30;11.48;;;;;;;8.96;100.00;100490.34;4944862;29;20067;-85
2022/12/21 08:55:06;;;;;;;16.55;11.45;;;;;;;8.84;100.00;100475.03;4945445;29;20075;-85
2022/12/21 08:57:33;;;;;;;23.70;12.50;;;;;;;8.83;100.00;100482.03;4947432;29;20081;-85
2022/12/21 09:00:00;;;;;;;18.60;11.40;;;;;;;8.87;100.00;100493.00;4947009;29;20052;-85
2022/12/21 09:02:28;;;;;;;20.77;11.65;;;;;;;8.83;100.00;100486.44;4947067;29;20071;-86
2022/12/21 09:04:55;;;;;;;17.10;12.18;;;;;;;8.74;100.00;100490.75;4949181;29;20047;-85
2022/12/21 09:07:21;;;;;;;16.75;11.40;;;;;;;8.86;100.00;100494.81;4947410;29;20143;-84
2022/12/21 09:09:48;;;;;;;18.58;11.35;;;;;;;8.86;100.00;100493.97;4945776;29;20083;-86
2022/12/21 09:12:16;;;;;;;16.80;11.13;;;;;;;8.96;100.00;100505.16;4945647;29;20056;-84
2022/12/21 09:14:43;;;;;;;15.60;10.77;;;;;;;9.04;100.00;100504.41;4945309;29;20058;-85
2022/12/21 09:17:10;;;;;;;19.40;11.57;;;;;;;9.05;100.00;100508.66;4943946;29;20498;-84
2022/12/21 09:19:37;;;;;;;49.47;21.05;;;;;;;9.07;100.00;100514.53;4945940;29;20133;-85
2022/12/21 09:22:03;;;;;;;33.33;13.38;;;;;;;9.01;100.00;100518.56;4946090;29;20108;-86
2022/12/21 09:24:30;;;;;;;20.30;10.55;;;;;;;9.01;100.00;100504.69;4938183;29;20064;-84
2022/12/21 09:26:57;;;;;;;15.32;9.50;;;;;;;8.93;100.00;100505.47;4927204;29;20052;-84
2022/12/21 09:29:25;;;;;;;15.57;10.32;;;;;;;8.90;100.00;100503.16;4926800;29;20075;-86
2022/12/21 09:31:51;;;;;;;36.22;11.70;;;;;;;8.81;100.00;100504.84;4939824;29;20075;-84
2022/12/21 09:34:19;;;;;;;16.60;11.82;;;;;;;8.77;100.00;100508.72;4943792;29;20095;-85
2022/12/21 09:36:46;;;;;;;22.02;12.73;;;;;;;8.81;100.00;100504.84;4945204;29;20075;-84
2022/12/21 09:39:12;;;;;;;36.95;13.98;;;;;;;8.81;100.00;100507.47;4942447;29;20060;-85
2022/12/21 09:41:49;;;;;;;22.17;13.48;;;;;;;8.96;100.00;100513.81;4944402;29;20060;-84
2022/12/21 09:44:40;;;;;;;26.15;12.68;;;;;;;8.93;100.00;100501.06;4943063;29;20048;-85
2022/12/21 09:47:13;;;;;;;23.20;14.02;;;;;;;8.87;100.00;100499.03;4941017;29;20051;-83
2022/12/21 09:49:46;;;;;;;26.35;13.32;;;;;;;8.91;100.00;100513.44;4954968;29;20051;-85
2022/12/21 09:52:21;;;;;;;29.70;14.90;;;;;;;9.08;100.00;100519.63;4957976;29;20051;-83
2022/12/21 09:54:56;;;;;;;32.90;17.33;;;;;;;9.17;100.00;100526.56;4951653;29;20052;-81
2022/12/21 09:57:27;;;;;;;47.30;21.90;;;;;;;9.11;100.00;100528.94;4942432;29;20070;-84
2022/12/21 09:59:55;;;;;;;46.30;24.77;;;;;;;9.11;100.00;100526.34;4942768;29;20048;-83
2022/12/21 10:02:36;;;;;;;54.03;29.30;;;;;;;9.09;100.00;100521.25;4939443;29;20694;-83
2022/12/21 10:05:17;;;;;;;42.03;22.48;;;;;;;9.05;100.00;100519.09;4936583;29;20052;-83
2022/12/21 10:08:06;;;;;;;34.22;17.80;;;;;;;8.97;100.00;100533.72;4924480;29;20159;-83
2022/12/21 10:10:38;;;;;;;34.65;16.35;;;;;;;8.96;100.00;100521.66;4935688;29;20269;-83
2022/12/21 10:13:19;;;;;;;29.73;14.82;;;;;;;8.84;100.00;100519.41;4949124;29;20044;-82
2022/12/21 10:16:04;;;;;;;31.63;14.68;;;;;;;8.97;100.00;100532.91;4941747;29;20148;-84
2022/12/21 10:18:41;;;;;;;35.25;16.00;;;;;;;8.93;100.00;100516.72;4932421;29;20064;-84
2022/12/21 10:32:05;;;;;;;33.03;15.40;;;;;;;9.33;100.00;100538.94;4880016;29;20344;-82
2022/12/21 10:34:35;;;;;;;38.20;15.82;;;;;;;9.28;100.00;100538.56;4942868;29;20109;-84
2022/12/21 10:37:04;;;;;;;29.92;14.60;;;;;;;9.22;100.00;100552.22;4939043;29;20044;-84
2022/12/21 10:39:34;;;;;;;35.83;16.17;;;;;;;9.19;100.00;100548.13;4924841;29;20060;-81
2022/12/21 10:42:06;;;;;;;30.70;15.20;;;;;;;9.38;100.00;100551.56;4942869;29;20522;-79
2022/12/21 10:44:38;;;;;;;22.75;11.93;;;;;;;9.18;100.00;100548.28;4941349;29;20059;-82
2022/12/21 10:47:13;;;;;;;21.88;11.15;;;;;;;9.20;100.00;100556.78;4926282;29;20063;-82
2022/12/21 10:49:41;;;;;;;19.90;10.00;;;;;;;9.19;100.00;100553.34;4922986;29;20052;-83
2022/12/21 10:52:33;;;;;;;26.33;9.23;;;;;;;9.27;100.00;100556.03;4923248;29;20107;-83
2022/12/21 10:55:00;;;;;;;18.35;9.82;;;;;;;9.22;100.00;100547.00;4933739;29;20047;-85
2022/12/21 10:57:28;;;;;;;22.02;9.43;;;;;;;9.34;100.00;100537.97;4941731;29;20051;-81
2022/12/21 10:59:55;;;;;;;24.88;8.93;;;;;;;9.24;100.00;100534.63;4941844;29;20068;-82
2022/12/21 11:02:41;;;;;;;21.88;9.65;;;;;;;9.41;100.00;100540.81;4924048;29;20056;-83
2022/12/21 11:05:26;;;;;;;20.83;8.43;;;;;;;9.27;100.00;100531.72;4925070;29;20113;-83
2022/12/21 11:07:53;;;;;;;18.02;9.15;;;;;;;9.32;100.00;100532.91;4927132;29;20169;-82
2022/12/21 11:10:27;;;;;;;17.90;8.05;;;;;;;9.32;100.00;100527.69;4940888;29;20082;-83
2022/12/21 11:12:54;;;;;;;16.95;7.80;;;;;;;9.31;100.00;100525.22;4946328;29;20071;-82
2022/12/21 11:15:23;;;;;;;18.95;7.63;;;;;;;9.35;100.00;100515.31;4944426;29;20048;-82
2022/12/21 11:17:51;;;;;;;21.77;8.32;;;;;;;9.50;100.00;100526.81;4946560;29;20056;-80
2022/12/21 11:20:20;;;;;;;19.70;7.93;;;;;;;9.47;100.00;100524.50;4947015;29;20085;-81
2022/12/21 11:22:51;;;;;;;17.17;7.40;;;;;;;9.48;100.00;100526.97;4947667;29;20059;-81
2022/12/21 11:25:20;;;;;;;14.82;7.60;;;;;;;9.50;100.00;100519.81;4936755;29;20088;-81
2022/12/21 11:27:50;;;;;;;14.90;7.50;;;;;;;9.69;100.00;100524.03;4928408;29;20115;-83
2022/12/21 11:30:20;;;;;;;17.13;8.00;;;;;;;9.68;100.00;100532.03;4929163;29;20135;-80
2022/12/21 11:32:50;;;;;;;18.95;8.20;;;;;;;9.84;100.00;100526.91;4928934;29;20115;-82
2022/12/21 11:35:22;;;;;;;21.55;7.63;;;;;;;9.94;100.00;100517.16;4928788;29;20107;-83
2022/12/21 11:37:53;;;;;;;13.57;7.97;;;;;;;9.98;100.00;100524.53;4928424;29;20052;-83
2022/12/21 11:40:22;;;;;;;18.05;7.55;;;;;;;9.97;100.00;100522.09;4935544;29;20251;-82
2022/12/21 11:42:55;;;;;;;18.40;7.88;;;;;;;9.90;100.00;100511.44;4944952;29;20509;-82
2022/12/21 11:45:24;;;;;;;16.55;7.93;;;;;;;9.92;100.00;100519.94;4940754;29;20094;-82
2022/12/21 11:48:14;;;;;;;15.88;8.30;;;;;;;9.83;100.00;100518.25;4924786;29;20064;-82
2022/12/21 11:50:57;;;;;;;16.95;7.95;;;;;;;9.73;100.00;100520.16;4937099;29;20059;-82
2022/12/21 11:53:45;;;;;;;14.07;7.95;;;;;;;9.73;100.00;100512.31;4944655;29;20079;-83